sensor_id;sensor_type;location;lat;lon;timestamp;pressure;altitude;pressure_sealevel;temperature;humidity
26083;BME280;13848;49.018;12.078;2023-06-24T00:01:37;98459.22;;;17.38;67.31
26083;BME280;13848;49.018;12.078;2023-06-24T00:04:03;98463.69;;;17.44;67.37
26083;BME280;13848;49.018;12.078;2023-06-24T00:06:29;98468.31;;;17.43;67.32
26083;BME280;13848;49.018;12.078;2023-06-24T00:08:55;98471.28;;;17.42;67.57
26083;BME280;13848;49.018;12.078;2023-06-24T00:11:21;98468.66;;;17.47;67.22
26083;BME280;13848;49.018;12.078;2023-06-24T00:13:47;98470.63;;;17.35;67.51
26083;BME280;13848;49.018;12.078;2023-06-24T00:16:13;98480.47;;;17.36;67.71
26083;BME280;13848;49.018;12.078;2023-06-24T00:18:40;98471.56;;;17.40;67.88
26083;BME280;13848;49.018;12.078;2023-06-24T00:21:06;98468.81;;;17.40;67.78
26083;BME280;13848;49.018;12.078;2023-06-24T00:23:32;98465.28;;;17.40;67.88
26083;BME280;13848;49.018;12.078;2023-06-24T00:25:58;98465.50;;;17.38;68.05
26083;BME280;13848;49.018;12.078;2023-06-24T00:28:24;98462.47;;;17.35;67.97
26083;BME280;13848;49.018;12.078;2023-06-24T00:30:50;98455.69;;;17.37;68.09
26083;BME280;13848;49.018;12.078;2023-06-24T00:33:16;98460.88;;;17.39;68.13
26083;BME280;13848;49.018;12.078;2023-06-24T00:35:43;98456.50;;;17.38;68.11
26083;BME280;13848;49.018;12.078;2023-06-24T00:38:09;98463.59;;;17.39;68.22
26083;BME280;13848;49.018;12.078;2023-06-24T00:40:35;98465.66;;;17.32;68.43
26083;BME280;13848;49.018;12.078;2023-06-24T00:43:01;98467.09;;;17.34;68.80
26083;BME280;13848;49.018;12.078;2023-06-24T00:45:27;98457.66;;;17.42;68.45
26083;BME280;13848;49.018;12.078;2023-06-24T00:47:53;98455.50;;;17.44;68.24
26083;BME280;13848;49.018;12.078;2023-06-24T00:50:19;98457.16;;;17.45;68.36
26083;BME280;13848;49.018;12.078;2023-06-24T00:52:47;98450.06;;;17.44;68.68
26083;BME280;13848;49.018;12.078;2023-06-24T00:55:15;98450.38;;;17.31;68.91
26083;BME280;13848;49.018;12.078;2023-06-24T00:57:43;98447.25;;;17.39;68.95
26083;BME280;13848;49.018;12.078;2023-06-24T01:00:10;98445.59;;;17.38;69.16
26083;BME280;13848;49.018;12.078;2023-06-24T01:02:36;98441.22;;;17.37;69.17
26083;BME280;13848;49.018;12.078;2023-06-24T01:05:02;98440.13;;;17.38;69.33
26083;BME280;13848;49.018;12.078;2023-06-24T01:07:28;98449.06;;;17.33;69.48
26083;BME280;13848;49.018;12.078;2023-06-24T01:09:56;98448.00;;;17.34;69.60
26083;BME280;13848;49.018;12.078;2023-06-24T01:12:22;98442.03;;;17.37;69.38
26083;BME280;13848;49.018;12.078;2023-06-24T01:14:48;98443.13;;;17.36;69.56
26083;BME280;13848;49.018;12.078;2023-06-24T01:17:16;98438.41;;;17.32;69.61
26083;BME280;13848;49.018;12.078;2023-06-24T01:19:57;98435.59;;;17.26;70.04
26083;BME280;13848;49.018;12.078;2023-06-24T01:25:44;98438.50;;;17.37;69.52
26083;BME280;13848;49.018;12.078;2023-06-24T01:28:26;98433.03;;;17.37;69.59
26083;BME280;13848;49.018;12.078;2023-06-24T01:34:01;98427.50;;;17.32;70.03
26083;BME280;13848;49.018;12.078;2023-06-24T01:36:28;98424.78;;;17.32;70.57
26083;BME280;13848;49.018;12.078;2023-06-24T01:39:00;98416.50;;;17.26;70.78
26083;BME280;13848;49.018;12.078;2023-06-24T01:41:32;98423.13;;;17.31;70.54
26083;BME280;13848;49.018;12.078;2023-06-24T01:43:59;98421.56;;;17.35;70.37
26083;BME280;13848;49.018;12.078;2023-06-24T01:46:28;98429.31;;;17.26;70.62
26083;BME280;13848;49.018;12.078;2023-06-24T01:48:58;98433.13;;;17.25;70.83
26083;BME280;13848;49.018;12.078;2023-06-24T01:51:26;98426.44;;;17.33;70.81
26083;BME280;13848;49.018;12.078;2023-06-24T01:53:56;98413.88;;;17.32;70.81
26083;BME280;13848;49.018;12.078;2023-06-24T01:56:25;98410.84;;;17.28;70.73
26083;BME280;13848;49.018;12.078;2023-06-24T01:58:54;98412.22;;;17.31;70.79
26083;BME280;13848;49.018;12.078;2023-06-24T02:01:21;98413.38;;;17.18;71.53
26083;BME280;13848;49.018;12.078;2023-06-24T02:03:48;98417.84;;;17.24;71.28
26083;BME280;13848;49.018;12.078;2023-06-24T02:06:17;98419.84;;;17.28;71.08
26083;BME280;13848;49.018;12.078;2023-06-24T02:08:45;98418.16;;;17.27;71.27
26083;BME280;13848;49.018;12.078;2023-06-24T02:11:14;98417.59;;;17.25;71.07
26083;BME280;13848;49.018;12.078;2023-06-24T02:13:42;98415.38;;;17.22;71.29
26083;BME280;13848;49.018;12.078;2023-06-24T02:16:09;98413.78;;;17.26;71.11
26083;BME280;13848;49.018;12.078;2023-06-24T02:18:37;98411.56;;;17.23;71.43
26083;BME280;13848;49.018;12.078;2023-06-24T02:21:04;98408.25;;;17.21;71.32
26083;BME280;13848;49.018;12.078;2023-06-24T02:23:33;98411.56;;;17.23;71.47
26083;BME280;13848;49.018;12.078;2023-06-24T02:26:01;98413.78;;;17.26;71.28
26083;BME280;13848;49.018;12.078;2023-06-24T02:28:28;98414.38;;;17.28;71.32
26083;BME280;13848;49.018;12.078;2023-06-24T02:30:55;98412.47;;;17.29;71.30
26083;BME280;13848;49.018;12.078;2023-06-24T02:33:22;98415.22;;;17.29;71.26
26083;BME280;13848;49.018;12.078;2023-06-24T02:35:48;98413.56;;;17.28;71.52
26083;BME280;13848;49.018;12.078;2023-06-24T02:38:14;98413.31;;;17.29;71.43
26083;BME280;13848;49.018;12.078;2023-06-24T02:40:43;98407.03;;;17.29;71.25
26083;BME280;13848;49.018;12.078;2023-06-24T02:43:09;98419.25;;;17.26;71.60
26083;BME280;13848;49.018;12.078;2023-06-24T02:45:35;98413.13;;;17.19;71.87
26083;BME280;13848;49.018;12.078;2023-06-24T02:48:01;98415.03;;;17.19;72.15
26083;BME280;13848;49.018;12.078;2023-06-24T02:50:28;98422.22;;;17.25;71.68
26083;BME280;13848;49.018;12.078;2023-06-24T02:52:54;98422.47;;;17.23;71.79
26083;BME280;13848;49.018;12.078;2023-06-24T02:55:21;98428.91;;;17.17;71.98
26083;BME280;13848;49.018;12.078;2023-06-24T02:57:48;98434.75;;;17.26;71.97
26083;BME280;13848;49.018;12.078;2023-06-24T03:00:16;98437.75;;;17.24;71.84
26083;BME280;13848;49.018;12.078;2023-06-24T03:02:43;98432.72;;;17.16;71.95
26083;BME280;13848;49.018;12.078;2023-06-24T03:05:11;98436.66;;;17.25;71.76
26083;BME280;13848;49.018;12.078;2023-06-24T03:07:37;98440.94;;;17.21;71.78
26083;BME280;13848;49.018;12.078;2023-06-24T03:10:04;98447.72;;;17.19;72.19
26083;BME280;13848;49.018;12.078;2023-06-24T03:12:30;98450.19;;;17.20;72.07
26083;BME280;13848;49.018;12.078;2023-06-24T03:14:57;98451.38;;;17.24;72.14
26083;BME280;13848;49.018;12.078;2023-06-24T03:17:23;98458.38;;;17.20;72.17
26083;BME280;13848;49.018;12.078;2023-06-24T03:19:49;98459.47;;;17.19;72.57
26083;BME280;13848;49.018;12.078;2023-06-24T03:22:15;98466.41;;;17.27;72.11
26083;BME280;13848;49.018;12.078;2023-06-24T03:24:41;98466.06;;;17.23;72.21
26083;BME280;13848;49.018;12.078;2023-06-24T03:27:07;98476.06;;;17.18;72.29
26083;BME280;13848;49.018;12.078;2023-06-24T03:29:33;98479.09;;;17.21;72.37
26083;BME280;13848;49.018;12.078;2023-06-24T03:32:00;98482.91;;;17.20;72.41
26083;BME280;13848;49.018;12.078;2023-06-24T03:34:26;98488.34;;;17.20;72.42
26083;BME280;13848;49.018;12.078;2023-06-24T03:36:52;98493.34;;;17.23;72.59
26083;BME280;13848;49.018;12.078;2023-06-24T03:39:18;98491.69;;;17.22;72.90
26083;BME280;13848;49.018;12.078;2023-06-24T03:41:44;98496.63;;;17.25;72.55
26083;BME280;13848;49.018;12.078;2023-06-24T03:44:10;98496.88;;;17.24;72.36
26083;BME280;13848;49.018;12.078;2023-06-24T03:46:36;98506.97;;;17.23;72.54
26083;BME280;13848;49.018;12.078;2023-06-24T03:49:03;98507.53;;;17.25;72.20
26083;BME280;13848;49.018;12.078;2023-06-24T03:51:29;98505.88;;;17.24;72.54
26083;BME280;13848;49.018;12.078;2023-06-24T03:53:55;98508.09;;;17.27;72.62
26083;BME280;13848;49.018;12.078;2023-06-24T03:56:21;98510.25;;;17.25;72.47
26083;BME280;13848;49.018;12.078;2023-06-24T03:58:47;98507.88;;;17.29;72.54
26083;BME280;13848;49.018;12.078;2023-06-24T04:01:13;98507.38;;;17.32;72.10
26083;BME280;13848;49.018;12.078;2023-06-24T04:03:39;98508.44;;;17.31;72.16
26083;BME280;13848;49.018;12.078;2023-06-24T04:06:06;98505.38;;;17.27;72.35
26083;BME280;13848;49.018;12.078;2023-06-24T04:08:32;98507.06;;;17.28;72.28
26083;BME280;13848;49.018;12.078;2023-06-24T04:10:58;98504.91;;;17.31;72.52
26083;BME280;13848;49.018;12.078;2023-06-24T04:13:24;98508.19;;;17.33;72.28
26083;BME280;13848;49.018;12.078;2023-06-24T04:15:50;98515.34;;;17.34;72.50
26083;BME280;13848;49.018;12.078;2023-06-24T04:18:16;98514.47;;;17.33;72.40
26083;BME280;13848;49.018;12.078;2023-06-24T04:20:42;98520.44;;;17.30;72.39
26083;BME280;13848;49.018;12.078;2023-06-24T04:23:09;98522.44;;;17.35;72.19
26083;BME280;13848;49.018;12.078;2023-06-24T04:25:35;98518.88;;;17.34;72.34
26083;BME280;13848;49.018;12.078;2023-06-24T04:28:01;98517.81;;;17.35;72.26
26083;BME280;13848;49.018;12.078;2023-06-24T04:30:27;98523.56;;;17.39;71.96
26083;BME280;13848;49.018;12.078;2023-06-24T04:32:53;98523.56;;;17.39;72.39
26083;BME280;13848;49.018;12.078;2023-06-24T04:35:19;98519.28;;;17.43;72.34
26083;BME280;13848;49.018;12.078;2023-06-24T04:37:45;98521.75;;;17.44;72.02
26083;BME280;13848;49.018;12.078;2023-06-24T04:40:12;98522.94;;;17.48;71.76
26083;BME280;13848;49.018;12.078;2023-06-24T04:42:38;98529.72;;;17.46;71.56
26083;BME280;13848;49.018;12.078;2023-06-24T04:45:05;98525.91;;;17.47;71.53
26083;BME280;13848;49.018;12.078;2023-06-24T04:47:31;98532.94;;;17.43;71.78
26083;BME280;13848;49.018;12.078;2023-06-24T04:49:57;98531.84;;;17.44;71.79
26083;BME280;13848;49.018;12.078;2023-06-24T04:52:23;98536.47;;;17.43;71.81
26083;BME280;13848;49.018;12.078;2023-06-24T04:54:49;98540.13;;;17.49;71.57
26083;BME280;13848;49.018;12.078;2023-06-24T04:57:26;98535.00;;;17.52;71.41
26083;BME280;13848;49.018;12.078;2023-06-24T04:59:52;98539.66;;;17.52;71.51
26083;BME280;13848;49.018;12.078;2023-06-24T05:02:18;98549.63;;;17.46;71.74
26083;BME280;13848;49.018;12.078;2023-06-24T05:04:44;98548.41;;;17.54;71.44
26083;BME280;13848;49.018;12.078;2023-06-24T05:07:10;98548.31;;;17.49;71.61
26083;BME280;13848;49.018;12.078;2023-06-24T05:09:36;98548.50;;;17.59;71.11
26083;BME280;13848;49.018;12.078;2023-06-24T05:12:02;98541.38;;;17.58;70.83
26083;BME280;13848;49.018;12.078;2023-06-24T05:14:29;98547.91;;;17.57;71.31
26083;BME280;13848;49.018;12.078;2023-06-24T05:16:55;98549.06;;;17.61;71.19
26083;BME280;13848;49.018;12.078;2023-06-24T05:19:21;98549.66;;;17.63;70.95
26083;BME280;13848;49.018;12.078;2023-06-24T05:21:47;98546.75;;;17.53;71.22
26083;BME280;13848;49.018;12.078;2023-06-24T05:24:13;98548.06;;;17.67;70.94
26083;BME280;13848;49.018;12.078;2023-06-24T05:26:40;98549.38;;;17.76;70.80
26083;BME280;13848;49.018;12.078;2023-06-24T05:29:06;98550.28;;;17.82;70.57
26083;BME280;13848;49.018;12.078;2023-06-24T05:31:33;98552.75;;;17.84;70.60
26083;BME280;13848;49.018;12.078;2023-06-24T05:33:59;98558.88;;;17.91;70.95
26083;BME280;13848;49.018;12.078;2023-06-24T05:36:25;98551.75;;;17.90;70.98
26083;BME280;13848;49.018;12.078;2023-06-24T05:38:51;98551.94;;;17.83;70.67
26083;BME280;13848;49.018;12.078;2023-06-24T05:41:17;98549.94;;;17.95;70.63
26083;BME280;13848;49.018;12.078;2023-06-24T05:43:43;98551.94;;;18.00;70.65
26083;BME280;13848;49.018;12.078;2023-06-24T05:46:09;98557.22;;;18.06;70.43
26083;BME280;13848;49.018;12.078;2023-06-24T05:48:36;98555.41;;;18.12;70.43
26083;BME280;13848;49.018;12.078;2023-06-24T05:51:02;98558.78;;;18.19;70.47
26083;BME280;13848;49.018;12.078;2023-06-24T05:53:28;98556.88;;;18.20;70.30
26083;BME280;13848;49.018;12.078;2023-06-24T05:55:54;98552.56;;;18.24;70.00
26083;BME280;13848;49.018;12.078;2023-06-24T05:58:20;98564.75;;;18.16;69.81
26083;BME280;13848;49.018;12.078;2023-06-24T06:00:46;98563.41;;;18.19;70.07
26083;BME280;13848;49.018;12.078;2023-06-24T06:03:12;98560.03;;;18.28;69.79
26083;BME280;13848;49.018;12.078;2023-06-24T06:05:39;98569.44;;;18.38;69.69
26083;BME280;13848;49.018;12.078;2023-06-24T06:08:05;98571.34;;;18.37;69.34
26083;BME280;13848;49.018;12.078;2023-06-24T06:10:31;98569.59;;;18.48;69.03
26083;BME280;13848;49.018;12.078;2023-06-24T06:12:57;98564.75;;;18.55;68.91
26083;BME280;13848;49.018;12.078;2023-06-24T06:15:23;98564.09;;;18.65;68.78
26083;BME280;13848;49.018;12.078;2023-06-24T06:17:48;98567.19;;;18.68;68.22
26083;BME280;13848;49.018;12.078;2023-06-24T06:20:14;98571.56;;;18.69;68.16
26083;BME280;13848;49.018;12.078;2023-06-24T06:22:42;98575.56;;;18.83;67.96
26083;BME280;13848;49.018;12.078;2023-06-24T06:25:08;98573.53;;;18.96;67.48
26083;BME280;13848;49.018;12.078;2023-06-24T06:27:34;98571.88;;;18.95;66.52
26083;BME280;13848;49.018;12.078;2023-06-24T06:30:00;98568.66;;;18.98;66.66
26083;BME280;13848;49.018;12.078;2023-06-24T06:32:26;98567.63;;;19.04;66.34
26083;BME280;13848;49.018;12.078;2023-06-24T06:34:52;98561.97;;;19.10;66.64
26083;BME280;13848;49.018;12.078;2023-06-24T06:37:18;98574.13;;;19.20;65.98
26083;BME280;13848;49.018;12.078;2023-06-24T06:39:45;98574.13;;;19.20;65.85
26083;BME280;13848;49.018;12.078;2023-06-24T06:42:11;98576.66;;;19.26;66.14
26083;BME280;13848;49.018;12.078;2023-06-24T06:44:37;98575.53;;;19.49;65.97
26083;BME280;13848;49.018;12.078;2023-06-24T06:47:03;98566.38;;;19.60;64.88
26083;BME280;13848;49.018;12.078;2023-06-24T06:49:29;98562.16;;;19.53;64.58
26083;BME280;13848;49.018;12.078;2023-06-24T06:51:55;98562.56;;;19.61;64.67
26083;BME280;13848;49.018;12.078;2023-06-24T06:54:21;98556.16;;;19.78;64.46
26083;BME280;13848;49.018;12.078;2023-06-24T06:56:48;98553.28;;;19.95;63.92
26083;BME280;13848;49.018;12.078;2023-06-24T06:59:14;98553.88;;;20.02;63.69
26083;BME280;13848;49.018;12.078;2023-06-24T07:01:40;98558.34;;;20.13;63.90
26083;BME280;13848;49.018;12.078;2023-06-24T07:04:06;98557.91;;;20.26;63.29
26083;BME280;13848;49.018;12.078;2023-06-24T07:06:32;98557.13;;;20.31;62.56
26083;BME280;13848;49.018;12.078;2023-06-24T07:08:58;98555.19;;;20.31;62.37
26083;BME280;13848;49.018;12.078;2023-06-24T07:11:23;98549.25;;;20.44;62.39
26083;BME280;13848;49.018;12.078;2023-06-24T07:13:51;98554.53;;;20.51;61.13
26083;BME280;13848;49.018;12.078;2023-06-24T07:16:17;98553.19;;;20.54;61.34
26083;BME280;13848;49.018;12.078;2023-06-24T07:18:43;98551.81;;;20.56;61.19
26083;BME280;13848;49.018;12.078;2023-06-24T07:21:09;98551.09;;;20.71;61.05
26083;BME280;13848;49.018;12.078;2023-06-24T07:23:35;98548.88;;;20.68;59.66
26083;BME280;13848;49.018;12.078;2023-06-24T07:26:01;98553.06;;;20.86;60.94
26083;BME280;13848;49.018;12.078;2023-06-24T07:28:27;98548.47;;;21.02;60.13
26083;BME280;13848;49.018;12.078;2023-06-24T07:30:54;98548.75;;;21.00;59.43
26083;BME280;13848;49.018;12.078;2023-06-24T07:33:20;98559.31;;;20.71;59.41
26083;BME280;13848;49.018;12.078;2023-06-24T07:35:46;98546.88;;;21.06;60.25
26083;BME280;13848;49.018;12.078;2023-06-24T07:38:12;98550.25;;;21.33;59.82
26083;BME280;13848;49.018;12.078;2023-06-24T07:40:38;98546.69;;;21.33;59.22
26083;BME280;13848;49.018;12.078;2023-06-24T07:43:04;98553.56;;;21.35;58.96
26083;BME280;13848;49.018;12.078;2023-06-24T07:45:30;98543.69;;;21.29;59.08
26083;BME280;13848;49.018;12.078;2023-06-24T07:47:57;98554.03;;;21.22;58.30
26083;BME280;13848;49.018;12.078;2023-06-24T07:50:23;98551.91;;;21.29;58.76
26083;BME280;13848;49.018;12.078;2023-06-24T07:52:49;98549.16;;;21.39;59.42
26083;BME280;13848;49.018;12.078;2023-06-24T07:55:15;98555.25;;;21.62;59.56
26083;BME280;13848;49.018;12.078;2023-06-24T07:57:45;98555.28;;;21.87;59.04
26083;BME280;13848;49.018;12.078;2023-06-24T08:00:12;98555.84;;;21.99;57.66
26083;BME280;13848;49.018;12.078;2023-06-24T08:02:38;98548.16;;;22.07;57.38
26083;BME280;13848;49.018;12.078;2023-06-24T08:05:06;98554.75;;;22.05;56.88
26083;BME280;13848;49.018;12.078;2023-06-24T08:07:32;98549.25;;;22.00;57.28
26083;BME280;13848;49.018;12.078;2023-06-24T08:09:58;98547.59;;;21.99;56.83
26083;BME280;13848;49.018;12.078;2023-06-24T08:12:24;98544.31;;;21.87;56.96
26083;BME280;13848;49.018;12.078;2023-06-24T08:14:49;98545.97;;;21.88;56.39
26083;BME280;13848;49.018;12.078;2023-06-24T08:17:15;98542.66;;;21.96;56.94
26083;BME280;13848;49.018;12.078;2023-06-24T08:19:41;98540.19;;;21.85;55.51
26083;BME280;13848;49.018;12.078;2023-06-24T08:22:08;98536.06;;;21.82;56.85
26083;BME280;13848;49.018;12.078;2023-06-24T08:24:36;98537.72;;;21.93;57.67
26083;BME280;13848;49.018;12.078;2023-06-24T08:27:02;98537.19;;;22.17;55.63
26083;BME280;13848;49.018;12.078;2023-06-24T08:29:28;98536.06;;;22.33;55.82
26083;BME280;13848;49.018;12.078;2023-06-24T08:31:54;98533.31;;;22.38;54.78
26083;BME280;13848;49.018;12.078;2023-06-24T08:34:20;98531.94;;;22.25;54.96
26083;BME280;13848;49.018;12.078;2023-06-24T08:36:46;98531.63;;;22.47;54.96
26083;BME280;13848;49.018;12.078;2023-06-24T08:39:13;98539.88;;;22.42;55.22
26083;BME280;13848;49.018;12.078;2023-06-24T08:41:39;98534.69;;;22.36;54.04
26083;BME280;13848;49.018;12.078;2023-06-24T08:44:05;98534.41;;;22.32;53.87
26083;BME280;13848;49.018;12.078;2023-06-24T08:46:31;98536.84;;;22.49;53.13
26083;BME280;13848;49.018;12.078;2023-06-24T08:49:02;98537.91;;;22.68;50.71
26083;BME280;13848;49.018;12.078;2023-06-24T08:51:35;98524.44;;;22.67;51.58
26083;BME280;13848;49.018;12.078;2023-06-24T08:54:06;98541.41;;;22.94;50.04
26083;BME280;13848;49.018;12.078;2023-06-24T08:56:34;98543.88;;;22.96;49.60
26083;BME280;13848;49.018;12.078;2023-06-24T08:59:00;98534.88;;;22.70;50.57
26083;BME280;13848;49.018;12.078;2023-06-24T09:01:27;98530.84;;;22.31;50.37
26083;BME280;13848;49.018;12.078;2023-06-24T09:03:53;98532.75;;;22.41;50.49
26083;BME280;13848;49.018;12.078;2023-06-24T09:06:18;98526.88;;;22.89;50.07
26083;BME280;13848;49.018;12.078;2023-06-24T09:08:52;98525.50;;;22.91;48.00
26083;BME280;13848;49.018;12.078;2023-06-24T09:11:22;98531.28;;;22.84;49.29
26083;BME280;13848;49.018;12.078;2023-06-24T09:13:54;98528.47;;;23.00;49.91
26083;BME280;13848;49.018;12.078;2023-06-24T09:16:20;98518.72;;;23.23;48.29
26083;BME280;13848;49.018;12.078;2023-06-24T09:18:47;98520.28;;;23.39;48.58
26083;BME280;13848;49.018;12.078;2023-06-24T09:21:13;98517.94;;;23.61;49.12
26083;BME280;13848;49.018;12.078;2023-06-24T09:23:39;98514.00;;;23.78;49.37
26083;BME280;13848;49.018;12.078;2023-06-24T09:26:09;98517.38;;;23.99;47.16
26083;BME280;13848;49.018;12.078;2023-06-24T09:28:35;98522.31;;;23.73;46.66
26083;BME280;13848;49.018;12.078;2023-06-24T09:31:09;98529.66;;;23.38;46.87
26083;BME280;13848;49.018;12.078;2023-06-24T09:33:35;98524.28;;;23.07;47.15
26083;BME280;13848;49.018;12.078;2023-06-24T09:36:03;98521.25;;;23.14;47.29
26083;BME280;13848;49.018;12.078;2023-06-24T09:38:32;98516.09;;;23.47;48.46
26083;BME280;13848;49.018;12.078;2023-06-24T09:41:02;98511.81;;;23.75;47.49
26083;BME280;13848;49.018;12.078;2023-06-24T09:43:28;98518.00;;;23.96;47.16
26083;BME280;13848;49.018;12.078;2023-06-24T09:45:54;98505.50;;;24.03;47.07
26083;BME280;13848;49.018;12.078;2023-06-24T09:48:22;98500.03;;;23.98;45.67
26083;BME280;13848;49.018;12.078;2023-06-24T09:50:48;98505.56;;;23.98;45.94
26083;BME280;13848;49.018;12.078;2023-06-24T09:53:14;98496.44;;;24.03;45.95
26083;BME280;13848;49.018;12.078;2023-06-24T09:55:42;98509.38;;;24.31;45.57
26083;BME280;13848;49.018;12.078;2023-06-24T09:58:08;98494.06;;;23.91;44.11
26083;BME280;13848;49.018;12.078;2023-06-24T10:00:34;98490.72;;;24.23;44.69
26083;BME280;13848;49.018;12.078;2023-06-24T10:03:00;98492.69;;;24.17;44.85
26083;BME280;13848;49.018;12.078;2023-06-24T10:05:28;98500.19;;;24.12;44.60
26083;BME280;13848;49.018;12.078;2023-06-24T10:07:54;98490.47;;;24.20;43.89
26083;BME280;13848;49.018;12.078;2023-06-24T10:10:20;98493.16;;;23.67;43.92
26083;BME280;13848;49.018;12.078;2023-06-24T10:12:46;98496.84;;;23.86;43.80
26083;BME280;13848;49.018;12.078;2023-06-24T10:15:12;98495.66;;;23.58;43.12
26083;BME280;13848;49.018;12.078;2023-06-24T10:17:38;98483.22;;;23.66;43.39
26083;BME280;13848;49.018;12.078;2023-06-24T10:20:05;98482.63;;;23.74;43.65
26083;BME280;13848;49.018;12.078;2023-06-24T10:22:33;98482.63;;;24.32;43.80
26083;BME280;13848;49.018;12.078;2023-06-24T10:25:00;98480.28;;;24.49;42.70
26083;BME280;13848;49.018;12.078;2023-06-24T10:27:26;98477.69;;;24.29;42.58
26083;BME280;13848;49.018;12.078;2023-06-24T10:29:53;98479.34;;;23.72;42.65
26083;BME280;13848;49.018;12.078;2023-06-24T10:32:22;98473.84;;;23.72;42.52
26083;BME280;13848;49.018;12.078;2023-06-24T10:34:54;98472.19;;;23.71;42.28
26083;BME280;13848;49.018;12.078;2023-06-24T10:37:22;98464.91;;;24.14;42.34
26083;BME280;13848;49.018;12.078;2023-06-24T10:39:53;98464.66;;;24.39;41.44
26083;BME280;13848;49.018;12.078;2023-06-24T10:42:33;98462.09;;;24.48;41.66
26083;BME280;13848;49.018;12.078;2023-06-24T10:45:13;98449.69;;;24.69;41.49
26083;BME280;13848;49.018;12.078;2023-06-24T10:47:41;98451.34;;;24.71;40.86
26083;BME280;13848;49.018;12.078;2023-06-24T10:50:08;98450.41;;;24.56;40.73
26083;BME280;13848;49.018;12.078;2023-06-24T10:52:38;98450.53;;;24.46;41.95
26083;BME280;13848;49.018;12.078;2023-06-24T10:55:06;98435.19;;;24.83;41.36
26083;BME280;13848;49.018;12.078;2023-06-24T10:57:33;98436.63;;;24.99;41.30
26083;BME280;13848;49.018;12.078;2023-06-24T10:59:59;98435.50;;;24.57;40.63
26083;BME280;13848;49.018;12.078;2023-06-24T11:02:27;98434.56;;;24.19;40.41
26083;BME280;13848;49.018;12.078;2023-06-24T11:04:55;98420.41;;;24.74;41.28
26083;BME280;13848;49.018;12.078;2023-06-24T11:07:22;98427.00;;;24.97;40.14
26083;BME280;13848;49.018;12.078;2023-06-24T11:09:49;98413.75;;;24.75;39.25
26083;BME280;13848;49.018;12.078;2023-06-24T11:12:17;98412.88;;;24.36;38.90
26083;BME280;13848;49.018;12.078;2023-06-24T11:14:43;98402.97;;;24.59;41.11
26083;BME280;13848;49.018;12.078;2023-06-24T11:17:09;98406.69;;;25.11;40.13
26083;BME280;13848;49.018;12.078;2023-06-24T11:19:35;98401.38;;;25.15;39.90
26083;BME280;13848;49.018;12.078;2023-06-24T11:22:02;98402.16;;;24.78;38.46
26083;BME280;13848;49.018;12.078;2023-06-24T11:24:28;98401.59;;;24.57;38.33
26083;BME280;13848;49.018;12.078;2023-06-24T11:26:54;98399.47;;;24.73;39.69
26083;BME280;13848;49.018;12.078;2023-06-24T11:29:21;98384.72;;;25.01;39.03
26083;BME280;13848;49.018;12.078;2023-06-24T11:31:47;98392.63;;;25.27;38.80
26083;BME280;13848;49.018;12.078;2023-06-24T11:34:13;98382.78;;;25.20;38.66
26083;BME280;13848;49.018;12.078;2023-06-24T11:36:39;98383.84;;;25.25;38.67
26083;BME280;13848;49.018;12.078;2023-06-24T11:39:05;98372.16;;;25.28;36.54
26083;BME280;13848;49.018;12.078;2023-06-24T11:41:31;98374.88;;;24.95;36.26
26083;BME280;13848;49.018;12.078;2023-06-24T11:43:57;98370.53;;;25.27;37.58
26083;BME280;13848;49.018;12.078;2023-06-24T11:46:25;98379.06;;;25.30;37.49
26083;BME280;13848;49.018;12.078;2023-06-24T11:48:51;98371.91;;;25.10;37.64
26083;BME280;13848;49.018;12.078;2023-06-24T11:51:17;98367.41;;;24.77;38.21
26083;BME280;13848;49.018;12.078;2023-06-24T11:53:44;98359.66;;;24.79;37.64
26083;BME280;13848;49.018;12.078;2023-06-24T11:56:10;98366.53;;;25.00;38.60
26083;BME280;13848;49.018;12.078;2023-06-24T11:58:36;98360.97;;;25.38;38.32
26083;BME280;13848;49.018;12.078;2023-06-24T12:01:02;98361.31;;;25.50;38.17
26083;BME280;13848;49.018;12.078;2023-06-24T12:03:30;98354.84;;;25.41;36.13
26083;BME280;13848;49.018;12.078;2023-06-24T12:05:56;98360.63;;;25.58;37.58
26083;BME280;13848;49.018;12.078;2023-06-24T12:08:21;98353.66;;;25.61;37.40
26083;BME280;13848;49.018;12.078;2023-06-24T12:10:47;98356.41;;;25.47;37.09
26083;BME280;13848;49.018;12.078;2023-06-24T12:13:14;98355.28;;;25.48;37.30
26083;BME280;13848;49.018;12.078;2023-06-24T12:15:40;98340.59;;;25.66;37.14
26083;BME280;13848;49.018;12.078;2023-06-24T12:18:06;98347.00;;;25.81;37.49
26083;BME280;13848;49.018;12.078;2023-06-24T12:20:34;98341.13;;;25.36;37.41
26083;BME280;13848;49.018;12.078;2023-06-24T12:23:02;98336.16;;;25.19;37.91
26083;BME280;13848;49.018;12.078;2023-06-24T12:25:28;98343.72;;;25.13;37.59
26083;BME280;13848;49.018;12.078;2023-06-24T12:27:54;98336.47;;;25.17;38.43
26083;BME280;13848;49.018;12.078;2023-06-24T12:30:20;98326.03;;;25.47;38.20
26083;BME280;13848;49.018;12.078;2023-06-24T12:32:46;98331.97;;;25.54;37.70
26083;BME280;13848;49.018;12.078;2023-06-24T12:35:12;98328.31;;;25.72;37.95
26083;BME280;13848;49.018;12.078;2023-06-24T12:37:40;98326.84;;;25.94;37.66
26083;BME280;13848;49.018;12.078;2023-06-24T12:40:07;98319.78;;;25.88;37.20
26083;BME280;13848;49.018;12.078;2023-06-24T12:42:33;98319.88;;;25.50;37.08
26083;BME280;13848;49.018;12.078;2023-06-24T12:44:59;98320.81;;;25.13;37.78
26083;BME280;13848;49.018;12.078;2023-06-24T12:47:25;98311.91;;;25.35;36.81
26083;BME280;13848;49.018;12.078;2023-06-24T12:49:51;98318.47;;;25.53;37.36
26083;BME280;13848;49.018;12.078;2023-06-24T12:52:17;98319.31;;;25.67;36.67
26083;BME280;13848;49.018;12.078;2023-06-24T12:54:45;98307.03;;;25.73;35.30